createdAt,value
2022-10-26T00:00:58.959Z,92.46
2022-10-26T00:01:59.041Z,92.46
2022-10-26T00:02:58.919Z,92.42
2022-10-26T00:03:58.903Z,92.25
2022-10-26T00:04:58.891Z,92.25
2022-10-26T00:05:58.876Z,92.21
2022-10-26T00:06:58.874Z,92.32
2022-10-26T00:07:58.996Z,92.32
2022-10-26T00:08:58.842Z,92.21
2022-10-26T00:09:58.831Z,92.32
2022-10-26T00:10:58.815Z,92.21
2022-10-26T00:11:58.824Z,92.21
2022-10-26T00:12:58.795Z,92.05
2022-10-26T00:13:58.777Z,92.11
2022-10-26T00:14:58.765Z,92.15
2022-10-26T00:16:58.733Z,92.15
2022-10-26T00:17:58.721Z,92.32
2022-10-26T00:18:58.707Z,92.36
2022-10-26T00:19:58.689Z,92.32
2022-10-26T00:20:58.681Z,92.25
2022-10-26T00:21:58.667Z,92.21
2022-10-26T00:22:58.668Z,92.25
2022-10-26T00:23:58.637Z,92.21
2022-10-26T00:24:58.635Z,92.32
2022-10-26T00:25:58.616Z,92.32
2022-10-26T00:26:58.599Z,92.11
2022-10-26T00:27:58.606Z,92.15
2022-10-26T00:28:58.571Z,92.11
2022-10-26T00:29:58.561Z,92.11
2022-10-26T00:30:58.546Z,92.11
2022-10-26T00:31:58.529Z,92.25
2022-10-26T00:32:58.523Z,92.11
2022-10-26T00:33:58.501Z,92.01
2022-10-26T00:35:06.074Z,92.11
2022-10-26T00:35:59.500Z,92.11
2022-10-26T00:36:58.471Z,92.11
2022-10-26T00:37:58.452Z,92.11
2022-10-26T00:38:58.442Z,92.11
2022-10-26T00:39:58.425Z,92.21
2022-10-26T00:41:58.400Z,92.32
2022-10-26T00:42:58.389Z,92.32
2022-10-26T00:43:58.391Z,92.21
2022-10-26T00:44:58.459Z,92.21
2022-10-26T00:45:58.341Z,92.21
2022-10-26T00:46:58.333Z,92.32
2022-10-26T00:47:58.314Z,92.21
2022-10-26T00:48:58.309Z,92.21
2022-10-26T00:49:58.288Z,92.21
2022-10-26T00:50:58.276Z,91.91
2022-10-26T00:51:58.264Z,92.01
2022-10-26T00:52:58.257Z,92.11
2022-10-26T00:53:58.236Z,92.11
2022-10-26T00:54:58.230Z,92.01
2022-10-26T00:55:58.212Z,91.91
2022-10-26T00:56:58.203Z,91.91
2022-10-26T00:57:58.185Z,91.80
2022-10-26T00:58:58.175Z,91.91
2022-10-26T00:59:58.176Z,91.91
2022-10-26T01:00:58.145Z,92.01
2022-10-26T01:01:58.126Z,91.91
2022-10-26T01:02:58.114Z,91.91
2022-10-26T01:03:58.178Z,91.91
2022-10-26T01:04:58.096Z,91.76
2022-10-26T01:05:58.083Z,91.50
2022-10-26T01:06:58.067Z,91.66
2022-10-26T01:07:58.047Z,91.60
2022-10-26T01:08:58.036Z,91.46
2022-10-26T01:09:58.174Z,91.46
2022-10-26T01:10:58.013Z,91.46
2022-10-26T01:11:57.996Z,91.15
2022-10-26T01:12:57.983Z,91.15
2022-10-26T01:13:57.968Z,91.15
2022-10-26T01:14:57.954Z,91.09
2022-10-26T01:15:57.972Z,91.05
2022-10-26T01:16:57.981Z,90.94
2022-10-26T01:17:57.915Z,91.09
2022-10-26T01:18:57.908Z,91.09
2022-10-26T01:19:57.893Z,91.05
2022-10-26T01:20:57.880Z,91.09
2022-10-26T01:21:57.863Z,90.99
2022-10-26T01:22:57.854Z,90.94
2022-10-26T01:23:57.832Z,90.84
2022-10-26T01:24:57.824Z,90.88
2022-10-26T01:25:57.805Z,90.84
2022-10-26T01:26:57.799Z,90.99
2022-10-26T01:27:57.777Z,90.88
2022-10-26T01:28:57.772Z,90.99
2022-10-26T01:29:57.752Z,91.03
2022-10-26T01:30:57.741Z,90.88
2022-10-26T01:31:57.753Z,90.88
2022-10-26T01:32:57.725Z,90.99
2022-10-26T01:33:57.702Z,90.78
2022-10-26T01:34:57.896Z,90.88
2022-10-26T01:35:57.670Z,90.88
2022-10-26T01:36:57.666Z,90.99
2022-10-26T01:37:57.651Z,90.99
2022-10-26T01:38:57.637Z,90.88
2022-10-26T01:39:57.625Z,90.88
2022-10-26T01:40:57.613Z,90.88
2022-10-26T01:41:57.594Z,90.88
2022-10-26T01:42:57.591Z,90.88
2022-10-26T01:43:57.568Z,90.78
2022-10-26T01:44:57.559Z,90.88
2022-10-26T01:45:57.544Z,90.88
2022-10-26T01:46:57.534Z,90.78
2022-10-26T01:47:57.533Z,90.82
2022-10-26T01:48:57.503Z,90.78
2022-10-26T01:49:57.486Z,90.78
2022-10-26T01:50:57.471Z,90.78
2022-10-26T01:51:57.456Z,90.78
2022-10-26T01:52:57.452Z,90.88
2022-10-26T01:53:57.432Z,90.88
2022-10-26T01:54:57.420Z,90.88
2022-10-26T01:55:57.412Z,90.78
2022-10-26T01:56:57.404Z,90.78
2022-10-26T01:57:57.383Z,90.78
2022-10-26T01:58:57.374Z,90.68
2022-10-26T01:59:57.359Z,90.82
2022-10-26T02:00:57.342Z,90.82
2022-10-26T02:01:57.328Z,90.82
2022-10-26T02:02:57.321Z,90.82
2022-10-26T02:03:57.367Z,90.82
2022-10-26T02:04:57.289Z,90.82
2022-10-26T02:05:57.270Z,90.82
2022-10-26T02:06:57.260Z,90.82
2022-10-26T02:07:57.247Z,90.82
2022-10-26T02:08:57.240Z,90.82
2022-10-26T02:09:57.220Z,90.72
2022-10-26T02:10:57.217Z,90.72
2022-10-26T02:11:57.191Z,90.72
2022-10-26T02:12:57.178Z,90.72
2022-10-26T02:13:57.164Z,90.82
2022-10-26T02:14:57.167Z,90.72
2022-10-26T02:15:57.135Z,90.82
2022-10-26T02:16:57.132Z,90.82
2022-10-26T02:17:57.109Z,90.82
2022-10-26T02:18:57.100Z,90.82
2022-10-26T02:19:57.120Z,90.62
2022-10-26T02:20:57.077Z,90.72
2022-10-26T02:21:57.064Z,90.68
2022-10-26T02:22:57.048Z,90.72
2022-10-26T02:23:57.105Z,90.78
2022-10-26T02:24:57.025Z,90.72
2022-10-26T02:25:57.009Z,90.62
2022-10-26T02:26:56.999Z,90.72
2022-10-26T02:27:56.977Z,90.72
2022-10-26T02:28:56.968Z,90.72
2022-10-26T02:29:56.948Z,90.72
2022-10-26T02:30:56.937Z,90.72
2022-10-26T02:31:56.926Z,90.72
2022-10-26T02:32:56.915Z,90.68
2022-10-26T02:33:56.901Z,90.72
2022-10-26T02:34:56.889Z,90.72
2022-10-26T02:35:56.890Z,90.72
2022-10-26T02:36:56.857Z,90.72
2022-10-26T02:37:56.841Z,90.72
2022-10-26T02:38:56.834Z,90.72
2022-10-26T02:39:56.827Z,90.72
2022-10-26T02:40:56.804Z,90.72
2022-10-26T02:41:56.800Z,90.68
2022-10-26T02:42:56.779Z,90.72
2022-10-26T02:43:56.766Z,90.72
2022-10-26T02:44:56.747Z,90.62
2022-10-26T02:45:56.741Z,90.62
2022-10-26T02:46:56.719Z,90.68
2022-10-26T02:47:56.711Z,90.62
2022-10-26T02:48:56.695Z,90.62
2022-10-26T02:49:56.687Z,90.62
2022-10-26T02:50:56.670Z,90.58
2022-10-26T02:51:56.691Z,90.62
2022-10-26T02:52:56.650Z,90.62
2022-10-26T02:53:56.633Z,90.62
2022-10-26T02:54:56.719Z,90.58
2022-10-26T02:55:56.610Z,90.58
2022-10-26T02:56:56.592Z,90.58
2022-10-26T02:57:56.580Z,90.58
2022-10-26T02:58:56.565Z,90.72
2022-10-26T02:59:56.595Z,90.62
2022-10-26T03:00:56.536Z,90.58
2022-10-26T03:01:56.523Z,90.62
2022-10-26T03:02:56.512Z,90.62
2022-10-26T03:03:56.540Z,90.58
2022-10-26T03:04:56.480Z,90.58
2022-10-26T03:05:56.466Z,90.58
2022-10-26T03:06:56.459Z,90.62
2022-10-26T03:07:56.469Z,90.62
2022-10-26T03:08:56.433Z,90.58
2022-10-26T03:09:56.426Z,90.58
2022-10-26T03:10:56.401Z,90.62
2022-10-26T03:11:56.387Z,90.62
2022-10-26T03:12:56.376Z,90.58
2022-10-26T03:13:56.360Z,90.58
2022-10-26T03:14:56.350Z,90.68
2022-10-26T03:15:56.341Z,90.68
2022-10-26T03:16:56.326Z,90.78
2022-10-26T03:17:56.313Z,90.78
2022-10-26T03:18:56.301Z,90.58
2022-10-26T03:19:56.336Z,90.58
2022-10-26T03:20:56.272Z,90.68
2022-10-26T03:21:56.260Z,90.58
2022-10-26T03:22:56.244Z,90.58
2022-10-26T03:23:56.253Z,90.58
2022-10-26T03:24:56.258Z,90.58
2022-10-26T03:25:56.208Z,90.58
2022-10-26T03:26:58.361Z,90.58
2022-10-26T03:27:56.223Z,90.58
2022-10-26T03:28:56.156Z,90.47
2022-10-26T03:29:56.149Z,90.43
2022-10-26T03:30:56.132Z,90.47
2022-10-26T03:31:56.127Z,90.58
2022-10-26T03:32:56.112Z,90.47
2022-10-26T03:33:56.101Z,90.47
2022-10-26T03:34:56.080Z,90.47
2022-10-26T03:35:56.073Z,90.47
2022-10-26T03:36:56.059Z,90.43
2022-10-26T03:37:56.046Z,90.47
2022-10-26T03:38:56.028Z,90.47
2022-10-26T03:39:56.036Z,90.43
2022-10-26T03:40:55.998Z,90.47
2022-10-26T03:41:56.020Z,90.47
2022-10-26T03:42:55.970Z,90.33
2022-10-26T03:43:55.973Z,90.47
2022-10-26T03:44:55.948Z,90.33
2022-10-26T03:45:55.945Z,90.47
2022-10-26T03:46:55.923Z,90.33
2022-10-26T03:47:55.908Z,90.27
2022-10-26T03:48:55.890Z,90.33
2022-10-26T03:49:55.914Z,90.33
2022-10-26T03:50:55.867Z,90.23
2022-10-26T03:51:55.854Z,90.23
2022-10-26T03:52:55.840Z,90.23
2022-10-26T03:53:55.829Z,90.27
2022-10-26T03:54:55.819Z,90.23
2022-10-26T03:55:55.826Z,90.23
2022-10-26T03:56:55.788Z,90.23
2022-10-26T03:57:55.782Z,90.27
2022-10-26T03:58:55.765Z,90.27
2022-10-26T03:59:55.754Z,90.27
2022-10-26T04:00:55.741Z,90.27
2022-10-26T04:01:57.818Z,90.27
2022-10-26T04:02:55.708Z,90.27
2022-10-26T04:03:55.738Z,90.37
2022-10-26T04:04:55.676Z,90.37
2022-10-26T04:05:55.668Z,90.37
2022-10-26T04:06:55.648Z,90.37
2022-10-26T04:07:55.644Z,90.37
2022-10-26T04:08:55.627Z,90.37
2022-10-26T04:09:55.614Z,90.37
2022-10-26T04:10:55.595Z,90.37
2022-10-26T04:11:55.617Z,90.37
2022-10-26T04:12:55.574Z,90.37
2022-10-26T04:13:55.568Z,90.37
2022-10-26T04:14:55.573Z,90.47
2022-10-26T04:15:55.535Z,90.37
2022-10-26T04:16:55.516Z,90.37
2022-10-26T04:17:55.506Z,90.37
2022-10-26T04:18:55.490Z,90.37
2022-10-26T04:19:55.485Z,90.37
2022-10-26T04:20:55.570Z,90.37
2022-10-26T04:21:55.456Z,90.37
2022-10-26T04:22:55.443Z,90.37
2022-10-26T04:23:55.429Z,90.33
2022-10-26T04:24:55.411Z,90.37
2022-10-26T04:25:55.401Z,90.33
2022-10-26T04:26:55.385Z,90.33
2022-10-26T04:27:55.392Z,90.33
2022-10-26T04:28:55.355Z,90.37
2022-10-26T04:29:55.349Z,90.33
2022-10-26T04:30:55.329Z,90.33
2022-10-26T04:31:55.318Z,90.37
2022-10-26T04:32:55.306Z,90.27
2022-10-26T04:33:55.294Z,90.27
2022-10-26T04:34:55.274Z,90.27
2022-10-26T04:35:55.270Z,90.37
2022-10-26T04:36:55.253Z,90.37
2022-10-26T04:37:55.244Z,90.37
2022-10-26T04:38:55.226Z,90.33
2022-10-26T04:39:55.245Z,90.41
2022-10-26T04:40:55.199Z,90.27
2022-10-26T04:41:55.188Z,90.37
2022-10-26T04:42:55.184Z,90.37
2022-10-26T04:43:55.180Z,90.37
2022-10-26T04:44:55.142Z,90.37
2022-10-26T04:45:55.132Z,90.37
2022-10-26T04:46:55.114Z,90.37
2022-10-26T04:47:55.109Z,90.27
2022-10-26T04:48:55.092Z,90.41
2022-10-26T04:49:55.087Z,90.47
2022-10-26T04:50:55.068Z,90.37
2022-10-26T04:51:55.052Z,90.41
2022-10-26T04:52:55.035Z,90.37
2022-10-26T04:53:55.030Z,90.37
2022-10-26T04:54:55.008Z,90.37
2022-10-26T04:55:54.996Z,90.37
2022-10-26T04:56:54.987Z,90.37
2022-10-26T04:57:57.231Z,90.37
2022-10-26T04:58:54.958Z,90.37
2022-10-26T04:59:54.969Z,90.37
2022-10-26T05:00:54.985Z,90.37
2022-10-26T05:01:55.049Z,90.37
2022-10-26T05:02:54.908Z,90.41
2022-10-26T05:03:54.898Z,90.37
2022-10-26T05:04:54.903Z,90.37
2022-10-26T05:05:54.875Z,90.37
2022-10-26T05:06:54.850Z,90.41
2022-10-26T05:07:54.839Z,90.37
2022-10-26T05:08:54.821Z,90.37
2022-10-26T05:09:54.808Z,90.41
2022-10-26T05:10:54.795Z,90.37
2022-10-26T05:11:54.781Z,90.41
2022-10-26T05:12:54.769Z,90.41
2022-10-26T05:13:54.759Z,90.31
2022-10-26T05:14:54.741Z,90.41
2022-10-26T05:15:54.763Z,90.41
2022-10-26T05:16:54.717Z,90.41
2022-10-26T05:17:54.710Z,90.41
2022-10-26T05:18:54.689Z,90.41
2022-10-26T05:19:54.678Z,90.41
2022-10-26T05:20:54.659Z,90.41
2022-10-26T05:21:54.649Z,90.41
2022-10-26T05:22:54.639Z,90.31
2022-10-26T05:23:54.626Z,90.41
2022-10-26T05:24:54.613Z,90.31
2022-10-26T05:25:54.598Z,90.41
2022-10-26T05:26:54.587Z,90.27
2022-10-26T05:27:54.578Z,90.31
2022-10-26T05:28:54.564Z,90.31
2022-10-26T05:29:54.587Z,90.31
2022-10-26T05:30:54.533Z,90.31
2022-10-26T05:31:54.545Z,90.31
2022-10-26T05:32:54.498Z,90.31
2022-10-26T05:33:54.490Z,90.27
2022-10-26T05:34:54.473Z,90.27
2022-10-26T05:35:54.462Z,90.27
2022-10-26T05:36:54.443Z,90.27
2022-10-26T05:37:54.436Z,90.17
2022-10-26T05:38:54.418Z,90.17
2022-10-26T05:39:54.414Z,90.27
2022-10-26T05:40:54.396Z,90.17
2022-10-26T05:41:54.387Z,90.17
2022-10-26T05:42:54.375Z,90.17
2022-10-26T05:43:54.373Z,90.17
2022-10-26T05:44:54.338Z,90.17
2022-10-26T05:45:54.326Z,90.17
2022-10-26T05:46:54.315Z,90.17
2022-10-26T05:47:58.594Z,90.17
2022-10-26T05:48:55.322Z,90.17
2022-10-26T05:49:54.281Z,90.17
2022-10-26T05:50:54.277Z,90.06
2022-10-26T05:51:54.251Z,90.12
2022-10-26T05:52:54.230Z,90.06
2022-10-26T05:53:54.263Z,90.02
2022-10-26T05:54:54.251Z,90.06
2022-10-26T05:55:54.197Z,90.02
2022-10-26T05:56:54.182Z,90.02
2022-10-26T05:57:54.173Z,90.02
2022-10-26T05:58:54.157Z,90.02
2022-10-26T05:59:54.148Z,90.06
2022-10-26T06:00:54.130Z,90.02
2022-10-26T06:01:54.346Z,90.06
2022-10-26T06:02:54.101Z,89.92
2022-10-26T06:03:54.109Z,89.97
2022-10-26T06:04:54.070Z,89.97
2022-10-26T06:05:54.065Z,90.02
2022-10-26T06:06:54.042Z,90.06
2022-10-26T06:07:54.034Z,89.97
2022-10-26T06:08:54.019Z,89.92
2022-10-26T06:09:54.007Z,89.92
2022-10-26T06:10:53.994Z,89.92
2022-10-26T06:11:53.984Z,89.92
2022-10-26T06:12:53.967Z,89.92
2022-10-26T06:13:53.957Z,89.92
2022-10-26T06:14:53.940Z,89.92
2022-10-26T06:15:53.932Z,89.92
2022-10-26T06:16:53.913Z,89.88
2022-10-26T06:17:53.909Z,89.88
2022-10-26T06:18:56.157Z,89.82
2022-10-26T06:19:53.893Z,89.82
2022-10-26T06:20:53.855Z,89.82
2022-10-26T06:21:53.843Z,89.82
2022-10-26T06:22:53.828Z,89.78
2022-10-26T06:23:53.819Z,89.82
2022-10-26T06:24:53.801Z,89.72
2022-10-26T06:25:53.790Z,89.78
2022-10-26T06:26:53.776Z,89.82
2022-10-26T06:27:53.773Z,89.67
2022-10-26T06:28:53.755Z,89.67
2022-10-26T06:29:53.742Z,89.67
2022-10-26T06:30:53.727Z,89.63
2022-10-26T06:31:53.718Z,89.63
2022-10-26T06:33:01.305Z,89.53
2022-10-26T06:33:54.716Z,89.53
2022-10-26T06:34:53.676Z,89.53
2022-10-26T06:35:53.682Z,89.43
2022-10-26T06:37:53.637Z,89.39
2022-10-26T06:38:53.615Z,89.43
2022-10-26T06:39:54.847Z,89.32
2022-10-26T06:40:53.590Z,89.28
2022-10-26T06:41:53.593Z,89.28
2022-10-26T06:42:53.578Z,89.28
2022-10-26T06:43:53.556Z,89.28
2022-10-26T06:44:53.543Z,89.28
2022-10-26T06:45:53.529Z,89.28
2022-10-26T06:46:53.511Z,89.18
2022-10-26T06:47:53.503Z,89.18
2022-10-26T06:48:53.482Z,89.14
2022-10-26T06:49:53.470Z,89.14
2022-10-26T06:50:53.452Z,89.18
2022-10-26T06:51:53.472Z,89.08
2022-10-26T06:52:53.432Z,89.04
2022-10-26T06:53:53.422Z,89.04
2022-10-26T06:54:53.406Z,89.08
2022-10-26T06:55:53.402Z,89.04
2022-10-26T06:56:53.380Z,89.04
2022-10-26T06:57:53.365Z,88.93
2022-10-26T06:58:53.358Z,88.93
2022-10-26T06:59:53.335Z,88.93
2022-10-26T07:00:53.326Z,88.93
2022-10-26T07:01:53.387Z,88.84
2022-10-26T07:02:53.941Z,88.84
2022-10-26T07:03:53.279Z,88.73
2022-10-26T07:04:53.269Z,88.73
2022-10-26T07:05:53.257Z,88.73
2022-10-26T07:06:53.244Z,88.73
2022-10-26T07:07:53.518Z,88.69
2022-10-26T07:08:53.228Z,88.69
2022-10-26T07:09:53.208Z,88.69
2022-10-26T07:10:53.198Z,88.59
2022-10-26T07:11:53.184Z,88.49
2022-10-26T07:12:53.172Z,88.59
2022-10-26T07:13:53.153Z,88.49
2022-10-26T07:14:53.143Z,88.45
2022-10-26T07:15:53.121Z,88.34
2022-10-26T07:16:53.114Z,88.34
2022-10-26T07:17:53.313Z,88.34
2022-10-26T07:18:53.090Z,88.24
2022-10-26T07:19:53.069Z,88.24
2022-10-26T07:20:53.061Z,88.14
2022-10-26T07:21:53.044Z,88.14
2022-10-26T07:22:53.035Z,88.14
2022-10-26T07:23:53.045Z,88.14
2022-10-26T07:24:53.015Z,88.14
2022-10-26T07:25:52.995Z,88.00
2022-10-26T07:26:52.986Z,88.04
2022-10-26T07:27:52.967Z,88.00
2022-10-26T07:28:52.951Z,88.04
2022-10-26T07:29:52.942Z,88.00
2022-10-26T07:30:56.176Z,87.90
2022-10-26T07:32:52.908Z,87.75
2022-10-26T07:33:52.886Z,87.75
2022-10-26T07:34:52.880Z,87.65
2022-10-26T07:35:52.857Z,87.65
2022-10-26T07:36:52.851Z,87.51
2022-10-26T07:37:52.834Z,87.45
2022-10-26T07:38:52.820Z,87.41
2022-10-26T07:39:52.823Z,87.35
2022-10-26T07:40:52.790Z,87.51
2022-10-26T07:41:52.780Z,87.35
2022-10-26T07:42:53.216Z,87.45
2022-10-26T07:43:52.745Z,87.45
2022-10-26T07:44:52.734Z,87.45
2022-10-26T07:45:52.717Z,87.41
2022-10-26T07:46:52.705Z,87.45
2022-10-26T07:47:52.695Z,87.45
2022-10-26T07:48:52.687Z,87.41
2022-10-26T07:49:52.689Z,87.30
2022-10-26T07:50:52.659Z,87.30
2022-10-26T07:51:52.641Z,87.30
2022-10-26T07:52:52.882Z,87.26
2022-10-26T07:53:52.611Z,87.26
2022-10-26T07:54:52.603Z,87.26
2022-10-26T07:55:52.608Z,87.26
2022-10-26T07:56:52.609Z,87.26
2022-10-26T07:57:54.806Z,87.41
2022-10-26T07:58:52.555Z,87.41
2022-10-26T07:59:52.531Z,87.30
2022-10-26T08:00:52.763Z,87.26
2022-10-26T08:01:52.598Z,87.30
2022-10-26T08:02:52.492Z,87.41
2022-10-26T08:03:52.479Z,87.26
2022-10-26T08:04:52.470Z,87.26
2022-10-26T08:05:52.455Z,87.26
2022-10-26T08:06:52.447Z,87.26
2022-10-26T08:07:52.696Z,87.26
2022-10-26T08:08:52.420Z,87.12
2022-10-26T08:09:52.399Z,87.16
2022-10-26T08:10:52.404Z,87.16
2022-10-26T08:11:52.391Z,87.12
2022-10-26T08:12:52.364Z,87.12
2022-10-26T08:13:52.394Z,87.12
2022-10-26T08:14:52.340Z,87.12
2022-10-26T08:15:52.318Z,87.12
2022-10-26T08:16:52.384Z,87.02
2022-10-26T08:17:52.523Z,86.98
2022-10-26T08:18:52.280Z,86.98
2022-10-26T08:19:52.269Z,86.98
2022-10-26T08:20:52.256Z,87.08
2022-10-26T08:21:52.243Z,87.12
2022-10-26T08:22:52.565Z,87.08
2022-10-26T08:23:52.217Z,86.98
2022-10-26T08:24:52.208Z,86.98
2022-10-26T08:25:52.194Z,86.94
2022-10-26T08:26:52.178Z,86.94
2022-10-26T08:27:52.178Z,86.83
2022-10-26T08:28:52.150Z,86.83
2022-10-26T08:29:52.131Z,86.80
2022-10-26T08:30:52.120Z,86.83
2022-10-26T08:31:52.109Z,86.80
2022-10-26T08:32:52.607Z,86.80
2022-10-26T08:33:52.081Z,86.80
2022-10-26T08:34:52.073Z,86.80
2022-10-26T08:35:52.050Z,86.80
2022-10-26T08:36:52.043Z,86.80
2022-10-26T08:37:52.026Z,86.76
2022-10-26T08:38:52.055Z,86.86
2022-10-26T08:39:54.756Z,86.96
2022-10-26T08:40:51.990Z,86.91
2022-10-26T08:41:51.975Z,87.06
2022-10-26T08:42:52.370Z,87.12
2022-10-26T08:43:51.971Z,86.57
2022-10-26T08:44:51.937Z,88.35
2022-10-26T08:45:51.921Z,88.11
2022-10-26T08:46:51.912Z,89.43
2022-10-26T08:47:52.338Z,89.02
2022-10-26T08:48:51.893Z,89.18
2022-10-26T08:49:51.871Z,89.08
2022-10-26T08:50:51.933Z,92.12
2022-10-26T08:51:51.840Z,91.31
2022-10-26T08:52:51.831Z,90.80
2022-10-26T08:53:51.812Z,90.40
2022-10-26T08:54:51.803Z,90.05
2022-10-26T08:55:51.786Z,89.95
2022-10-26T08:56:51.777Z,90.25
2022-10-26T08:57:52.151Z,90.36
2022-10-26T08:58:51.750Z,90.66
2022-10-26T08:59:51.756Z,91.47
2022-10-26T09:00:51.761Z,91.11
2022-10-26T09:01:51.767Z,90.34
2022-10-26T09:02:51.704Z,91.15
2022-10-26T09:03:51.739Z,90.75
2022-10-26T09:04:51.670Z,89.94
2022-10-26T09:05:51.648Z,90.54
2022-10-26T09:06:51.641Z,90.44
2022-10-26T09:07:52.109Z,90.34
2022-10-26T09:08:51.615Z,89.94
2022-10-26T09:09:51.601Z,89.32
2022-10-26T09:10:51.593Z,89.73
2022-10-26T09:11:51.614Z,89.02
2022-10-26T09:12:51.877Z,89.63
2022-10-26T09:13:54.142Z,89.23
2022-10-26T09:14:51.538Z,89.12
2022-10-26T09:15:51.538Z,88.78
2022-10-26T09:16:51.512Z,90.14
2022-10-26T09:17:51.493Z,89.39
2022-10-26T09:18:51.485Z,88.78
2022-10-26T09:19:51.460Z,89.48
2022-10-26T09:20:51.457Z,89.79
2022-10-26T09:21:51.433Z,89.59
2022-10-26T09:22:51.779Z,89.54
2022-10-26T09:23:51.411Z,89.69
2022-10-26T09:24:51.403Z,89.99
2022-10-26T09:25:51.393Z,89.79
2022-10-26T09:26:51.445Z,90.50
2022-10-26T09:27:51.766Z,90.80
2022-10-26T09:28:51.350Z,90.70
2022-10-26T09:29:51.335Z,90.50
2022-10-26T09:30:51.321Z,89.99
2022-10-26T09:31:51.323Z,89.59
2022-10-26T09:32:51.290Z,89.43
2022-10-26T09:33:51.273Z,89.99
2022-10-26T09:34:51.265Z,91.61
2022-10-26T09:35:51.252Z,91.05
2022-10-26T09:36:51.248Z,89.99
2022-10-26T09:37:51.598Z,89.28
2022-10-26T09:38:51.212Z,88.88
2022-10-26T09:39:51.200Z,88.88
2022-10-26T09:40:51.186Z,89.39
2022-10-26T09:41:51.168Z,89.39
2022-10-26T09:42:51.157Z,89.79
2022-10-26T09:43:51.148Z,90.50
2022-10-26T09:44:51.129Z,89.99
2022-10-26T09:45:51.111Z,90.20
2022-10-26T09:46:51.101Z,89.79
2022-10-26T09:47:51.426Z,89.54
2022-10-26T09:48:51.128Z,90.56
2022-10-26T09:49:51.062Z,90.25
2022-10-26T09:50:51.060Z,90.40
2022-10-26T09:51:51.038Z,90.05
2022-10-26T09:52:51.470Z,91.27
2022-10-26T09:53:51.008Z,90.66
2022-10-26T09:54:51.001Z,91.06
2022-10-26T09:55:50.980Z,91.16
2022-10-26T09:56:50.970Z,90.31
2022-10-26T09:57:50.955Z,90.82
2022-10-26T09:58:50.941Z,90.52
2022-10-26T09:59:50.924Z,90.11
2022-10-26T10:00:50.917Z,90.82
2022-10-26T10:01:50.990Z,91.42
2022-10-26T10:02:51.269Z,91.49
2022-10-26T10:03:50.900Z,91.78
2022-10-26T10:04:50.868Z,92.54
2022-10-26T10:05:52.406Z,92.09
2022-10-26T10:06:50.840Z,91.99
2022-10-26T10:07:50.822Z,92.09
2022-10-26T10:08:50.852Z,92.09
2022-10-26T10:09:50.795Z,92.96
2022-10-26T10:10:50.783Z,92.55
2022-10-26T10:11:50.772Z,92.65
2022-10-26T10:12:51.085Z,92.21
2022-10-26T10:13:50.747Z,92.91
2022-10-26T10:14:50.733Z,93.82
2022-10-26T10:15:50.720Z,93.01
2022-10-26T10:16:50.707Z,94.12
2022-10-26T10:17:53.011Z,94.43
2022-10-26T10:18:50.684Z,92.97
2022-10-26T10:19:50.687Z,93.68
2022-10-26T10:20:50.819Z,94.08
2022-10-26T10:21:50.635Z,94.68
2022-10-26T10:22:50.623Z,94.74
2022-10-26T10:23:50.609Z,94.24
2022-10-26T10:24:50.596Z,93.99
2022-10-26T10:25:50.583Z,93.44
2022-10-26T10:26:50.569Z,94.40
2022-10-26T10:27:51.003Z,94.07
2022-10-26T10:28:50.547Z,92.93
2022-10-26T10:29:50.528Z,91.94
2022-10-26T10:30:50.525Z,89.53
2022-10-26T10:31:50.505Z,91.02
2022-10-26T10:32:50.883Z,93.13
2022-10-26T10:33:50.480Z,91.87
2022-10-26T10:34:50.467Z,92.69
2022-10-26T10:35:50.464Z,93.15
2022-10-26T10:36:50.436Z,91.99
2022-10-26T10:37:50.417Z,92.18
2022-10-26T10:38:50.409Z,92.18
2022-10-26T10:39:50.397Z,91.02
2022-10-26T10:40:50.385Z,91.87
2022-10-26T10:41:50.368Z,90.97
2022-10-26T10:42:50.673Z,91.77
2022-10-26T10:43:50.343Z,92.47
2022-10-26T10:44:50.335Z,92.07
2022-10-26T10:45:50.322Z,93.08
2022-10-26T10:46:50.304Z,93.32
2022-10-26T10:47:50.291Z,92.32
2022-10-26T10:48:50.281Z,91.41
2022-10-26T10:49:50.266Z,91.06
2022-10-26T10:50:50.258Z,91.17
2022-10-26T10:51:50.283Z,92.13
2022-10-26T10:52:50.586Z,92.43
2022-10-26T10:53:50.214Z,91.13
2022-10-26T10:54:50.206Z,90.92
2022-10-26T10:56:50.181Z,91.68
2022-10-26T10:57:50.591Z,91.48
2022-10-26T10:58:50.154Z,92.69
2022-10-26T10:59:50.130Z,89.94
2022-10-26T11:00:50.122Z,89.23
2022-10-26T11:01:50.208Z,90.33
2022-10-26T11:02:50.092Z,90.19
2022-10-26T11:03:50.077Z,87.18
2022-10-26T11:04:50.067Z,89.49
2022-10-26T11:05:50.071Z,90.49
2022-10-26T11:06:50.039Z,88.34
2022-10-26T11:07:50.242Z,85.03
2022-10-26T11:08:50.019Z,86.88
2022-10-26T11:09:50.096Z,88.14
2022-10-26T11:10:49.990Z,89.40
2022-10-26T11:11:49.984Z,88.20
2022-10-26T11:12:49.971Z,88.96
2022-10-26T11:13:49.947Z,86.69
2022-10-26T11:14:49.937Z,88.60
2022-10-26T11:15:49.925Z,87.50
2022-10-26T11:16:49.907Z,89.40
2022-10-26T11:17:50.151Z,86.96
2022-10-26T11:18:49.888Z,84.55
2022-10-26T11:19:49.879Z,86.71
2022-10-26T11:20:49.913Z,86.11
2022-10-26T11:21:49.849Z,85.63
2022-10-26T11:22:50.194Z,85.23
2022-10-26T11:23:49.837Z,82.57
2022-10-26T11:24:49.802Z,87.18
2022-10-26T11:25:49.792Z,83.51
2022-10-26T11:26:49.774Z,82.01
2022-10-26T11:27:50.113Z,85.75
2022-10-26T11:28:49.750Z,82.81
2022-10-26T11:29:49.761Z,84.85
2022-10-26T11:30:49.725Z,83.87
2022-10-26T11:31:49.721Z,75.76
2022-10-26T11:32:50.054Z,74.24
2022-10-26T11:33:49.709Z,69.99
2022-10-26T11:34:49.673Z,64.98
2022-10-26T11:35:49.677Z,63.07
2022-10-26T11:36:49.652Z,64.26
2022-10-26T11:37:49.637Z,65.91
2022-10-26T11:38:56.790Z,66.74
2022-10-26T11:39:50.652Z,67.44
2022-10-26T11:40:49.593Z,71.88
2022-10-26T11:41:49.587Z,63.20
2022-10-26T11:42:49.942Z,63.35
2022-10-26T11:43:49.558Z,68.00
2022-10-26T11:44:52.866Z,68.43
2022-10-26T11:45:49.582Z,69.32
2022-10-26T11:46:49.518Z,67.96
2022-10-26T11:47:49.885Z,63.52
2022-10-26T11:48:49.488Z,64.87
2022-10-26T11:49:49.631Z,67.70
2022-10-26T11:50:49.459Z,66.30
2022-10-26T11:51:49.456Z,65.80
2022-10-26T11:52:49.890Z,70.76
2022-10-26T11:53:49.425Z,70.39
2022-10-26T11:54:49.411Z,68.43
2022-10-26T11:55:49.425Z,72.96
2022-10-26T11:56:49.387Z,78.05
2022-10-26T11:57:49.793Z,75.26
2022-10-26T11:58:49.470Z,76.56
2022-10-26T11:59:49.351Z,75.46
2022-10-26T12:00:49.334Z,78.55
2022-10-26T12:01:49.384Z,74.55
2022-10-26T12:02:49.412Z,78.09
2022-10-26T12:03:49.301Z,74.03
2022-10-26T12:04:49.278Z,76.83
2022-10-26T12:05:49.566Z,75.52
2022-10-26T12:06:49.318Z,79.73
2022-10-26T12:07:49.516Z,79.33
2022-10-26T12:08:49.228Z,80.08
2022-10-26T12:09:49.214Z,70.29
2022-10-26T12:10:49.201Z,67.86
2022-10-26T12:11:49.295Z,66.94
2022-10-26T12:12:49.499Z,68.30
2022-10-26T12:13:49.171Z,70.62
2022-10-26T12:14:49.151Z,71.42
2022-10-26T12:16:02.842Z,71.36
2022-10-26T12:16:50.235Z,74.08
2022-10-26T12:17:49.399Z,70.72
2022-10-26T12:18:55.509Z,69.76
2022-10-26T12:19:50.140Z,71.19
2022-10-26T12:20:49.090Z,72.29
2022-10-26T12:21:49.058Z,75.93
2022-10-26T12:22:49.639Z,76.97
2022-10-26T12:23:51.722Z,74.06
2022-10-26T12:24:49.020Z,74.30
2022-10-26T12:25:49.011Z,74.26
2022-10-26T12:26:48.992Z,74.46
2022-10-26T12:27:49.025Z,77.93
2022-10-26T12:28:52.340Z,75.73
2022-10-26T12:29:48.958Z,72.99
2022-10-26T12:30:48.944Z,70.89
2022-10-26T12:31:48.932Z,69.76
2022-10-26T12:32:49.354Z,69.06
2022-10-26T12:33:48.909Z,68.00
2022-10-26T12:34:48.949Z,62.01
2022-10-26T12:35:48.879Z,60.46
2022-10-26T12:36:48.867Z,61.96
2022-10-26T12:37:49.252Z,60.61
2022-10-26T12:38:48.840Z,58.61
2022-10-26T12:39:48.826Z,55.60
2022-10-26T12:40:48.812Z,53.17
2022-10-26T12:41:48.808Z,51.77
2022-10-26T12:42:48.792Z,52.91
2022-10-26T12:43:48.797Z,53.37
2022-10-26T12:44:48.756Z,53.61
2022-10-26T12:45:48.757Z,51.94
2022-10-26T12:46:48.729Z,50.95
2022-10-26T12:47:49.078Z,53.55
2022-10-26T12:48:48.708Z,53.81
2022-10-26T12:49:48.698Z,52.61
2022-10-26T12:50:48.682Z,53.64
2022-10-26T12:51:48.671Z,51.07
2022-10-26T12:52:49.059Z,54.28
2022-10-26T12:53:48.643Z,49.52
2022-10-26T12:54:48.632Z,52.71
2022-10-26T12:55:48.673Z,54.61
2022-10-26T12:56:48.602Z,53.42
2022-10-26T12:57:48.603Z,54.81